Time;durP1;ratioP1;P1;durP2;ratioP2;P2;SDS_P1;SDS_P2;PMS_P1;PMS_P2;Temp;Humidity;BMP_temperature;BMP_pressure;BME280_temperature;BME280_humidity;BME280_pressure;Samples;Min_cycle;Max_cycle;Signal;HPM_P1;HPM_P2
2021/12/23 00:00:33;;;;;;;53.15;20.00;;;;;;;-3.60;99.36;100508.56;4975889;28;20198;-82
2021/12/23 00:02:59;;;;;;;50.95;21.10;;;;;;;-5.11;99.40;100255.13;4982605;28;20188;-82
2021/12/23 00:05:25;;;;;;;64.22;24.73;;;;;;;-5.86;98.85;100101.56;4988101;28;20164;-82
2021/12/23 00:07:50;;;;;;;66.17;24.77;;;;;;;-3.52;98.46;100518.47;4977861;28;20239;-82
2021/12/23 00:10:15;;;;;;;55.40;21.00;;;;;;;-4.82;98.90;100306.31;4977252;28;20711;-82
2021/12/23 00:12:42;;;;;;;55.43;20.37;;;;;;;-5.06;99.93;100291.09;4976591;28;20173;-82
2021/12/23 00:15:17;;;;;;;54.85;21.77;;;;;;;-4.07;99.88;100419.69;4975564;28;20183;-82
2021/12/23 00:18:02;;;;;;;55.75;22.25;;;;;;;-4.06;99.78;100432.22;4975030;28;20258;-82
2021/12/23 00:25:43;;;;;;;67.15;24.50;;;;;;;-4.39;99.56;100411.88;4968864;28;20203;-82
2021/12/23 00:28:09;;;;;;;71.77;24.40;;;;;;;-4.12;100.00;100418.28;4978479;28;20192;-81
2021/12/23 00:30:34;;;;;;;77.77;27.37;;;;;;;-4.59;100.00;100339.53;4978028;28;20247;-82
2021/12/23 00:33:00;;;;;;;73.97;26.77;;;;;;;-4.22;100.00;100397.44;4979157;28;20165;-82
2021/12/23 00:35:26;;;;;;;74.43;26.38;;;;;;;-3.76;100.00;100491.75;4984814;28;20171;-80
2021/12/23 00:37:57;;;;;;;62.40;24.70;;;;;;;-6.31;100.00;100083.09;4980657;28;20172;-82
2021/12/23 00:40:23;;;;;;;72.03;24.40;;;;;;;-6.26;100.00;100098.44;4978408;28;20680;-83
2021/12/23 00:42:48;;;;;;;70.67;23.83;;;;;;;-3.71;100.00;100498.16;4978643;28;20168;-83
2021/12/23 00:45:14;;;;;;;69.30;26.33;;;;;;;-6.98;100.00;99958.53;4977540;28;20602;-82
2021/12/23 00:47:39;;;;;;;70.83;27.03;;;;;;;-5.08;100.00;100275.25;4977361;28;20188;-82
2021/12/23 00:50:05;;;;;;;71.80;26.07;;;;;;;-7.31;100.00;99905.31;4976832;28;20557;-82
2021/12/23 00:52:37;;;;;;;81.18;29.35;;;;;;;-4.65;100.00;100363.50;4977288;28;20733;-82
2021/12/23 00:55:05;;;;;;;76.10;27.25;;;;;;;-3.76;100.00;100492.66;4977396;28;20175;-81
2021/12/23 00:57:32;;;;;;;82.95;30.13;;;;;;;-4.60;100.00;100424.19;4977248;28;20188;-81
2021/12/23 00:59:59;;;;;;;78.28;29.77;;;;;;;-3.97;100.00;100484.34;4976813;28;20176;-81
2021/12/23 01:02:31;;;;;;;78.28;29.33;;;;;;;-3.90;100.00;100481.88;4978598;28;20161;-82
2021/12/23 01:04:57;;;;;;;82.97;31.85;;;;;;;-7.66;100.00;99826.50;4976530;28;20180;-81
2021/12/23 01:07:22;;;;;;;81.87;30.20;;;;;;;-3.81;100.00;100485.41;4976508;28;20238;-81
2021/12/23 01:09:48;;;;;;;77.70;30.27;;;;;;;-6.64;100.00;99998.72;4975542;28;20195;-82
2021/12/23 01:12:16;;;;;;;92.77;33.43;;;;;;;-5.45;100.00;100194.44;4976784;28;20161;-82
2021/12/23 01:14:53;;;;;;;92.78;33.92;;;;;;;-4.27;100.00;100386.13;4974995;28;20186;-80
2021/12/23 01:19:51;;;;;;;98.03;38.03;;;;;;;-3.61;100.00;100482.06;4976495;28;20167;-82
2021/12/23 01:22:17;;;;;;;103.93;36.40;;;;;;;-6.55;99.79;99963.59;4975150;28;20164;-81
2021/12/23 01:24:42;;;;;;;97.00;36.45;;;;;;;-3.65;99.81;100471.63;4973108;28;20238;-81
2021/12/23 01:27:08;;;;;;;87.20;34.03;;;;;;;-5.87;99.50;100093.25;4974591;28;20219;-82
2021/12/23 01:29:35;;;;;;;88.33;33.30;;;;;;;-5.76;99.01;100127.41;4973943;28;20187;-82
2021/12/23 01:32:03;;;;;;;94.13;32.00;;;;;;;-5.19;98.84;100229.53;4974414;28;20171;-81
2021/12/23 01:34:29;;;;;;;82.70;32.55;;;;;;;-5.37;98.71;100230.75;4974706;28;20168;-81
2021/12/23 01:36:56;;;;;;;82.10;33.20;;;;;;;-4.15;99.20;100416.34;4974373;28;20171;-82
2021/12/23 01:39:21;;;;;;;100.20;40.03;;;;;;;-4.39;98.60;100401.09;4974340;28;20175;-83
2021/12/23 01:41:47;;;;;;;108.33;40.77;;;;;;;-4.56;98.63;100339.00;4974435;28;20172;-81
2021/12/23 01:44:12;;;;;;;98.70;38.20;;;;;;;-4.66;99.09;100337.03;4974662;28;20566;-82
2021/12/23 01:46:38;;;;;;;76.47;29.97;;;;;;;-3.85;98.91;100469.34;4974276;28;20366;-81
2021/12/23 01:49:04;;;;;;;90.70;29.83;;;;;;;-3.89;98.65;100473.75;4973184;28;20179;-82
2021/12/23 01:51:30;;;;;;;80.18;27.70;;;;;;;-6.04;98.37;100097.78;4973816;28;20608;-82
2021/12/23 01:53:55;;;;;;;83.57;29.80;;;;;;;-4.59;100.00;100391.41;4974677;28;20203;-82
2021/12/23 01:56:24;;;;;;;79.17;28.67;;;;;;;-6.13;100.00;100124.72;4974964;28;20219;-82
2021/12/23 01:58:49;;;;;;;77.35;29.65;;;;;;;-4.05;100.00;100463.66;4974862;28;20214;-82
2021/12/23 02:01:15;;;;;;;82.73;30.47;;;;;;;-6.96;100.00;99969.41;4974139;28;20169;-83
2021/12/23 02:03:40;;;;;;;80.17;28.63;;;;;;;-6.97;100.00;99959.38;4974412;28;20184;-81
2021/12/23 02:06:06;;;;;;;97.63;31.97;;;;;;;-5.43;99.74;100215.22;4974144;28;20660;-83
2021/12/23 02:08:34;;;;;;;95.20;34.08;;;;;;;-6.18;100.00;100065.75;4974270;28;20172;-82
2021/12/23 02:11:00;;;;;;;103.63;34.75;;;;;;;-4.89;100.00;100317.03;4974551;28;20176;-82
2021/12/23 02:13:26;;;;;;;115.70;37.05;;;;;;;-5.38;100.00;100224.03;4977000;28;20166;-82
2021/12/23 02:15:51;;;;;;;110.27;37.53;;;;;;;-6.04;100.00;100113.47;4978426;28;20227;-82
2021/12/23 02:18:17;;;;;;;125.40;41.57;;;;;;;-4.12;100.00;100466.13;4973417;28;20187;-82
2021/12/23 02:20:42;;;;;;;106.73;36.73;;;;;;;-3.99;100.00;100453.63;4973906;28;20164;-82
2021/12/23 02:23:09;;;;;;;103.17;36.07;;;;;;;-5.11;100.00;100262.53;4973790;28;20191;-83
2021/12/23 02:25:36;;;;;;;94.20;32.33;;;;;;;-4.79;99.81;100307.56;4974131;28;20198;-82
2021/12/23 02:28:07;;;;;;;99.53;37.03;;;;;;;-4.12;99.85;100462.78;4974287;28;20617;-82
2021/12/23 02:30:36;;;;;;;117.90;38.78;;;;;;;-4.06;99.39;100454.47;4974702;28;20302;-82
2021/12/23 02:33:02;;;;;;;109.75;36.75;;;;;;;-4.15;99.22;100482.19;4973456;28;20197;-82
2021/12/23 02:35:28;;;;;;;76.53;28.33;;;;;;;-6.26;99.09;100118.16;4975159;28;20171;-82
2021/12/23 02:37:54;;;;;;;95.97;32.00;;;;;;;-4.23;99.17;100445.09;4974042;28;20239;-82
2021/12/23 02:40:27;;;;;;;92.18;32.25;;;;;;;-5.27;99.06;100262.31;4972808;28;20641;-82
2021/12/23 02:42:53;;;;;;;76.18;28.60;;;;;;;-6.55;97.42;100017.75;4972536;28;20577;-82
2021/12/23 02:45:19;;;;;;;75.05;28.60;;;;;;;-4.08;97.33;100452.53;4973938;28;20163;-82
2021/12/23 02:47:44;;;;;;;70.47;26.47;;;;;;;-6.04;96.76;100128.25;4974120;28;20354;-82
2021/12/23 02:50:10;;;;;;;68.13;27.50;;;;;;;-4.12;96.53;100452.91;4974372;28;20165;-82
2021/12/23 02:52:36;;;;;;;70.53;26.47;;;;;;;-5.40;96.43;100255.06;4978192;28;20168;-82
2021/12/23 02:55:05;;;;;;;73.43;27.70;;;;;;;-4.09;96.20;100444.22;4975135;28;20188;-83
2021/12/23 02:57:32;;;;;;;71.03;27.00;;;;;;;-5.53;96.28;100205.00;4977879;28;20164;-84
2021/12/23 02:59:58;;;;;;;69.72;28.00;;;;;;;-4.72;96.80;100383.22;4988305;28;20195;-83
2021/12/23 03:02:24;;;;;;;67.40;26.97;;;;;;;-4.20;97.10;100445.44;4980796;28;20629;-82
2021/12/23 03:04:49;;;;;;;71.00;27.50;;;;;;;-7.39;96.49;99896.16;4977288;28;20616;-82
2021/12/23 03:07:15;;;;;;;63.40;25.80;;;;;;;-5.19;97.46;100281.34;4977047;28;20207;-82
2021/12/23 03:09:44;;;;;;;71.35;26.35;;;;;;;-5.82;97.36;100170.22;4977271;28;20637;-82
2021/12/23 03:12:10;;;;;;;73.78;28.45;;;;;;;-7.17;97.98;99952.13;4977120;28;20210;-82
2021/12/23 03:14:35;;;;;;;72.60;26.60;;;;;;;-7.40;97.83;99923.88;4977048;28;20616;-82
2021/12/23 03:17:01;;;;;;;108.17;35.93;;;;;;;-4.24;99.28;100449.88;4975307;28;20243;-82
2021/12/23 03:19:26;;;;;;;202.40;60.17;;;;;;;-7.20;99.35;99950.13;4976814;28;20255;-82
2021/12/23 03:21:52;;;;;;;93.67;34.37;;;;;;;-4.20;99.78;100450.41;4976952;28;20207;-82
2021/12/23 03:24:19;;;;;;;108.93;37.77;;;;;;;-4.36;99.61;100456.72;4975282;28;20194;-82
2021/12/23 03:26:46;;;;;;;84.88;31.85;;;;;;;-6.33;100.00;100109.13;4976731;28;20226;-82
2021/12/23 03:29:11;;;;;;;99.75;37.03;;;;;;;-4.46;99.38;100439.06;4976900;28;20649;-82
2021/12/23 03:31:38;;;;;;;102.07;36.43;;;;;;;-6.71;97.39;100070.09;4976654;28;20251;-82
2021/12/23 03:34:04;;;;;;;96.18;31.92;;;;;;;-4.41;97.18;100472.59;4976676;28;20584;-82
2021/12/23 03:36:30;;;;;;;93.70;31.08;;;;;;;-5.38;97.16;100327.66;4976926;28;20640;-82
2021/12/23 03:38:56;;;;;;;96.80;33.80;;;;;;;-6.69;96.45;100122.84;4976735;28;20160;-82
2021/12/23 03:41:21;;;;;;;101.63;35.87;;;;;;;-6.83;97.79;100090.75;4976661;28;20237;-83
2021/12/23 03:43:47;;;;;;;101.83;35.07;;;;;;;-7.45;96.94;99945.44;4975083;28;20266;-81
2021/12/23 03:46:12;;;;;;;91.57;32.67;;;;;;;-6.65;97.46;100116.72;4976638;28;20235;-81
2021/12/23 03:48:38;;;;;;;90.33;33.27;;;;;;;-4.50;97.22;100481.38;4978374;28;20506;-82
2021/12/23 03:51:03;;;;;;;88.17;31.43;;;;;;;-7.52;96.74;99965.06;4974869;28;20799;-83
2021/12/23 03:53:28;;;;;;;83.87;30.63;;;;;;;-6.44;95.65;100131.59;4974925;28;20179;-82
2021/12/23 03:55:54;;;;;;;110.00;40.70;;;;;;;-5.74;95.71;100269.00;4976331;28;20239;-82
2021/12/23 03:58:20;;;;;;;89.87;35.43;;;;;;;-6.06;96.75;100227.31;4976194;28;20164;-82
2021/12/23 04:00:46;;;;;;;93.28;33.03;;;;;;;-4.54;97.63;100489.16;4976410;28;20168;-82
2021/12/23 04:03:12;;;;;;;95.20;34.17;;;;;;;-5.26;97.66;100359.41;4976215;28;20174;-82
2021/12/23 04:05:37;;;;;;;87.73;32.97;;;;;;;-6.40;97.22;100182.09;4976384;28;20167;-82
2021/12/23 04:08:03;;;;;;;84.83;33.73;;;;;;;-6.65;97.56;100134.81;4974746;28;20186;-83
2021/12/23 04:10:28;;;;;;;92.40;34.17;;;;;;;-7.96;97.28;99910.50;4974758;28;20586;-82
2021/12/23 04:12:54;;;;;;;89.57;33.50;;;;;;;-6.64;96.95;100136.56;4975936;28;20167;-82
2021/12/23 04:15:20;;;;;;;84.97;33.20;;;;;;;-4.61;97.76;100484.16;4975235;28;20164;-82
2021/12/23 04:17:46;;;;;;;85.40;33.72;;;;;;;-6.05;97.96;100244.78;4976103;28;20242;-82
2021/12/23 04:20:19;;;;;;;79.03;31.58;;;;;;;-6.36;98.22;100199.00;4974772;28;20226;-82
2021/12/23 04:22:46;;;;;;;79.90;33.15;;;;;;;-7.47;97.48;99995.97;4976257;28;20161;-81
2021/12/23 04:25:13;;;;;;;77.03;30.80;;;;;;;-4.42;98.28;100504.56;4975729;28;20240;-81
2021/12/23 04:27:38;;;;;;;77.13;26.55;;;;;;;-6.51;97.85;100133.16;4976678;28;20195;-82
2021/12/23 04:30:07;;;;;;;76.75;29.50;;;;;;;-6.23;97.47;100227.75;4974559;28;20235;-81
2021/12/23 04:32:33;;;;;;;80.43;29.88;;;;;;;-4.45;97.95;100505.03;4975785;28;20192;-81
2021/12/23 04:34:58;;;;;;;69.40;27.85;;;;;;;-5.24;97.82;100365.41;4975172;28;20226;-81
2021/12/23 04:37:24;;;;;;;75.53;30.27;;;;;;;-7.55;97.98;99978.56;4987953;28;20180;-82
2021/12/23 04:39:49;;;;;;;77.23;30.83;;;;;;;-5.23;98.00;100355.75;4976210;28;20196;-82
2021/12/23 04:42:15;;;;;;;76.57;30.93;;;;;;;-6.46;98.02;100147.78;4979014;28;20636;-83
2021/12/23 04:44:40;;;;;;;76.43;29.63;;;;;;;-7.47;97.85;99973.88;4975976;28;20202;-81
2021/12/23 04:47:06;;;;;;;83.43;32.17;;;;;;;-5.31;98.12;100382.66;4975117;28;20258;-82
2021/12/23 04:49:32;;;;;;;77.82;30.65;;;;;;;-8.09;98.15;99896.56;4975420;28;20663;-81
2021/12/23 04:51:57;;;;;;;80.70;30.83;;;;;;;-7.31;97.67;100045.47;4976415;28;20179;-81
2021/12/23 04:54:22;;;;;;;79.87;30.90;;;;;;;-6.15;98.16;100243.44;4974299;28;20317;-82
2021/12/23 04:56:48;;;;;;;86.40;30.60;;;;;;;-6.73;98.47;100147.75;4975792;28;20217;-80
2021/12/23 04:59:14;;;;;;;75.53;29.27;;;;;;;-4.54;98.28;100476.81;4975800;28;20168;-83
2021/12/23 05:01:39;;;;;;;80.50;32.13;;;;;;;-6.41;98.14;100165.56;4976059;28;20223;-82
2021/12/23 05:04:04;;;;;;;75.23;30.07;;;;;;;-6.43;98.29;100147.25;4976230;28;20180;-82
2021/12/23 05:06:30;;;;;;;73.10;29.67;;;;;;;-5.24;98.47;100367.88;4975449;28;20221;-81
2021/12/23 05:08:56;;;;;;;81.37;30.07;;;;;;;-6.44;97.97;100152.88;4979780;28;20203;-81
2021/12/23 05:11:21;;;;;;;79.17;30.87;;;;;;;-6.56;97.73;100148.94;4981958;28;20255;-81
2021/12/23 05:13:47;;;;;;;106.67;43.67;;;;;;;-4.58;98.45;100501.81;4981712;28;20169;-81
2021/12/23 05:16:14;;;;;;;94.25;37.08;;;;;;;-8.11;98.35;99866.91;4976906;28;20168;-82
2021/12/23 05:18:40;;;;;;;114.75;43.55;;;;;;;-6.65;98.47;100143.78;4975558;28;20237;-82
2021/12/23 05:21:06;;;;;;;89.93;34.13;;;;;;;-7.43;98.42;100002.16;4975662;28;20629;-79
2021/12/23 05:23:32;;;;;;;81.17;32.83;;;;;;;-4.50;98.43;100496.22;4974141;28;20187;-82
2021/12/23 05:25:57;;;;;;;104.55;41.75;;;;;;;-8.30;97.41;99859.59;4974264;28;20207;-82
2021/12/23 05:28:23;;;;;;;83.73;33.47;;;;;;;-6.43;98.08;100222.03;4973903;28;20171;-81
2021/12/23 05:30:48;;;;;;;92.03;32.33;;;;;;;-7.05;97.44;100068.28;4974751;28;20611;-83
2021/12/23 05:33:14;;;;;;;71.07;29.17;;;;;;;-5.69;97.21;100322.22;4974799;28;20160;-81
2021/12/23 05:35:39;;;;;;;76.10;30.53;;;;;;;-5.28;97.07;100355.88;4974704;28;20190;-82
2021/12/23 05:38:05;;;;;;;83.30;31.07;;;;;;;-4.66;97.91;100502.50;4974548;28;20640;-82
2021/12/23 05:40:30;;;;;;;80.30;33.97;;;;;;;-6.02;97.99;100259.03;4974729;28;20178;-82
2021/12/23 05:42:57;;;;;;;86.60;34.43;;;;;;;-7.27;97.12;100059.88;4973301;28;20189;-82
2021/12/23 05:45:23;;;;;;;80.82;34.47;;;;;;;-5.24;96.64;100386.03;4974335;28;20160;-82
2021/12/23 05:47:50;;;;;;;85.63;32.33;;;;;;;-8.28;96.69;99870.47;4974256;28;20211;-81
2021/12/23 05:50:17;;;;;;;91.75;37.35;;;;;;;-6.45;96.89;100191.38;4974283;28;20266;-81
2021/12/23 05:52:43;;;;;;;92.00;34.25;;;;;;;-5.82;96.57;100272.13;4964760;28;20200;-82
2021/12/23 05:55:10;;;;;;;96.83;42.53;;;;;;;-6.71;95.99;100152.88;4969294;28;20179;-81
2021/12/23 05:57:36;;;;;;;79.65;32.22;;;;;;;-4.51;96.19;100504.34;4974029;28;20171;-82
2021/12/23 06:00:09;;;;;;;85.93;32.60;;;;;;;-4.95;95.91;100431.50;4974047;28;20322;-82
2021/12/23 06:02:34;;;;;;;83.85;31.65;;;;;;;-6.25;95.76;100238.13;4975298;28;20226;-81
2021/12/23 06:05:00;;;;;;;103.47;36.83;;;;;;;-4.70;96.32;100488.03;4979220;28;20179;-82
2021/12/23 06:07:25;;;;;;;122.50;39.30;;;;;;;-6.83;96.49;100129.25;4977789;28;20191;-82
2021/12/23 06:09:50;;;;;;;102.17;40.47;;;;;;;-4.83;96.97;100502.06;4974581;28;20741;-82
2021/12/23 06:12:16;;;;;;;110.20;43.47;;;;;;;-4.43;96.17;100525.91;4958445;28;20176;-83
2021/12/23 06:14:42;;;;;;;119.63;42.30;;;;;;;-8.44;95.53;99833.38;4953149;28;20576;-82
2021/12/23 06:17:07;;;;;;;93.80;37.57;;;;;;;-7.31;95.40;100033.16;4954795;28;20181;-82
2021/12/23 06:19:32;;;;;;;87.77;34.93;;;;;;;-6.75;94.65;100108.91;4955326;29;20180;-81
2021/12/23 06:21:58;;;;;;;99.17;38.97;;;;;;;-7.06;94.17;100057.59;4955296;28;20172;-82
2021/12/23 06:24:23;;;;;;;201.57;60.07;;;;;;;-6.06;93.87;100210.06;4954347;28;20195;-82
2021/12/23 06:26:49;;;;;;;209.97;73.83;;;;;;;-6.35;92.60;99998.84;4955105;28;20199;-82
2021/12/23 06:29:14;;;;;;;180.80;57.37;;;;;;;-4.18;88.02;100242.97;4953566;29;20172;-82
2021/12/23 06:31:40;;;;;;;156.27;51.15;;;;;;;-3.71;83.78;100221.97;4954251;29;20302;-83
2021/12/23 06:34:05;;;;;;;179.63;58.60;;;;;;;-1.42;79.71;100508.38;4954611;28;20260;-82
2021/12/23 06:36:32;;;;;;;167.77;61.20;;;;;;;-1.71;76.85;100409.16;4954358;28;20647;-82
2021/12/23 06:38:59;;;;;;;215.85;71.03;;;;;;;-1.92;75.95;100421.00;4956589;28;20195;-82
2021/12/23 06:41:25;;;;;;;220.02;73.85;;;;;;;-2.97;77.15;100310.19;4958855;28;20188;-82
2021/12/23 06:43:52;;;;;;;241.53;85.67;;;;;;;-1.88;78.61;100541.34;4960682;28;20649;-81
2021/12/23 06:46:18;;;;;;;266.42;84.65;;;;;;;-5.06;79.82;100024.56;4977599;28;20207;-81
2021/12/23 06:48:44;;;;;;;246.37;83.37;;;;;;;-5.31;81.17;100072.69;4963501;28;20600;-83
2021/12/23 06:51:10;;;;;;;212.93;73.90;;;;;;;-5.69;82.94;100011.56;4959665;28;20196;-81
2021/12/23 06:53:38;;;;;;;140.53;49.77;;;;;;;-2.40;83.90;100552.06;4957872;29;20216;-82
2021/12/23 06:56:04;;;;;;;134.50;49.72;;;;;;;-2.49;83.95;100471.69;4976684;28;20191;-82
2021/12/23 06:58:31;;;;;;;129.30;48.30;;;;;;;-0.79;73.76;100308.00;4977144;28;20255;-82
2021/12/23 07:00:57;;;;;;;120.40;50.60;;;;;;;2.10;62.30;100297.91;4976165;28;20612;-82
2021/12/23 07:03:30;;;;;;;118.57;50.20;;;;;;;2.93;56.70;100102.88;4977345;28;20177;-82
2021/12/23 07:06:04;;;;;;;135.43;56.47;;;;;;;6.71;51.59;100545.13;4977599;28;20187;-82
2021/12/23 07:08:30;;;;;;;181.93;76.03;;;;;;;7.44;48.33;100556.59;4976011;28;20427;-82
2021/12/23 07:10:56;;;;;;;217.43;87.63;;;;;;;5.88;48.47;100427.94;4977071;28;20951;-83
2021/12/23 07:13:22;;;;;;;245.53;101.57;;;;;;;5.27;48.77;100244.81;4977339;28;20438;-83
2021/12/23 07:15:48;;;;;;;202.60;85.67;;;;;;;6.75;46.94;100446.47;4976716;28;20176;-82
2021/12/23 07:18:14;;;;;;;88.33;40.73;;;;;;;6.00;48.29;100566.25;4975782;28;20191;-82
2021/12/23 07:20:40;;;;;;;112.60;46.87;;;;;;;4.61;49.36;100344.84;4977232;28;20176;-82
2021/12/23 07:23:05;;;;;;;85.83;36.67;;;;;;;3.88;48.15;100069.88;4975267;28;20422;-83
2021/12/23 07:25:32;;;;;;;77.33;35.00;;;;;;;4.80;46.08;100094.75;4956549;28;20190;-82
2021/12/23 07:27:58;;;;;;;98.90;43.17;;;;;;;6.81;45.11;100456.97;4955935;28;20200;-83
2021/12/23 07:30:23;;;;;;;179.57;62.87;;;;;;;4.80;47.30;100358.13;4961493;28;20488;-82
2021/12/23 07:32:51;;;;;;;120.40;49.87;;;;;;;1.51;52.23;100233.41;4958585;28;20334;-82
2021/12/23 07:35:18;;;;;;;79.50;35.53;;;;;;;0.97;56.10;100345.47;4948608;28;20631;-82
2021/12/23 07:37:44;;;;;;;74.90;35.20;;;;;;;-0.90;58.75;100181.78;4956253;29;20482;-82
2021/12/23 07:40:14;;;;;;;79.57;35.47;;;;;;;-0.87;59.78;100187.06;4956923;28;20421;-81
2021/12/23 07:42:51;;;;;;;63.80;29.03;;;;;;;-0.75;60.93;100309.22;4962739;28;20403;-80
2021/12/23 07:45:17;;;;;;;124.95;48.17;;;;;;;-1.51;63.37;100225.97;4962576;28;20415;-81
2021/12/23 07:47:42;;;;;;;59.77;27.37;;;;;;;-1.28;64.30;100282.25;4968444;28;20262;-82
2021/12/23 07:50:08;;;;;;;62.60;27.80;;;;;;;-1.06;65.48;100367.31;4976853;28;20225;-82
2021/12/23 07:52:34;;;;;;;180.87;60.97;;;;;;;-1.35;67.20;100349.41;4977733;28;20226;-83
2021/12/23 07:54:59;;;;;;;69.37;27.67;;;;;;;-1.94;66.84;100282.66;4975554;28;20180;-82
2021/12/23 07:57:24;;;;;;;83.50;31.47;;;;;;;-1.16;69.80;100465.56;4971253;28;20176;-81
2021/12/23 07:59:50;;;;;;;110.70;35.83;;;;;;;-1.63;67.92;100331.44;4976522;28;20198;-82
2021/12/23 08:02:15;;;;;;;77.50;29.97;;;;;;;-2.18;66.93;100194.16;4957026;28;20179;-83
2021/12/23 08:04:41;;;;;;;54.53;24.90;;;;;;;-0.80;66.22;100423.09;4957283;28;20705;-83
2021/12/23 08:07:06;;;;;;;70.27;29.57;;;;;;;-2.06;67.32;100210.28;4954584;28;20297;-83
2021/12/23 08:09:32;;;;;;;56.13;23.37;;;;;;;-0.87;65.88;100316.28;4955426;28;20180;-83
2021/12/23 08:11:59;;;;;;;96.47;35.90;;;;;;;0.27;63.28;100439.84;4957699;28;20181;-83
2021/12/23 08:14:24;;;;;;;77.15;36.35;;;;;;;-0.47;63.43;100302.94;4968663;28;20189;-83
2021/12/23 08:16:50;;;;;;;56.00;27.10;;;;;;;0.79;63.37;100493.22;4944354;28;20192;-82
2021/12/23 08:19:15;;;;;;;59.17;28.90;;;;;;;-0.10;61.47;100251.13;4986125;28;20176;-82
2021/12/23 08:21:41;;;;;;;120.37;53.17;;;;;;;1.82;61.65;100555.72;4982578;28;20203;-82
2021/12/23 08:24:06;;;;;;;67.80;32.60;;;;;;;1.87;62.11;100552.94;4969695;28;20169;-82
2021/12/23 08:26:39;;;;;;;51.30;23.63;;;;;;;-0.12;61.66;100201.22;4964875;28;20701;-81
2021/12/23 08:29:07;;;;;;;70.97;33.70;;;;;;;0.99;61.72;100403.84;4956161;28;20180;-81
2021/12/23 08:31:33;;;;;;;94.97;37.47;;;;;;;0.25;61.92;100252.09;4939015;29;20554;-82
2021/12/23 08:33:59;;;;;;;56.47;24.87;;;;;;;-0.87;62.37;100129.91;4956673;28;20405;-83
2021/12/23 08:36:26;;;;;;;58.57;27.17;;;;;;;-0.45;64.11;100215.31;4958420;28;20165;-83
2021/12/23 08:38:52;;;;;;;38.17;17.03;;;;;;;-1.24;64.81;100184.09;4968079;28;20281;-84
2021/12/23 08:41:17;;;;;;;44.33;20.73;;;;;;;1.65;64.34;100569.97;4976392;28;20407;-84
2021/12/23 08:43:48;;;;;;;66.17;28.70;;;;;;;1.54;63.99;100520.63;4977152;28;20179;-83
2021/12/23 08:46:13;;;;;;;52.73;23.70;;;;;;;0.28;63.00;100192.59;4976287;28;20474;-84
2021/12/23 08:48:39;;;;;;;87.17;30.70;;;;;;;-0.34;62.58;100097.00;4975428;28;20840;-83
2021/12/23 08:51:04;;;;;;;88.97;31.83;;;;;;;-0.67;62.15;100102.06;4975671;28;20251;-83
2021/12/23 08:53:30;;;;;;;77.07;27.90;;;;;;;1.69;62.54;100462.22;4974156;28;20276;-83
2021/12/23 08:55:57;;;;;;;62.90;28.03;;;;;;;0.58;62.19;100250.31;4976361;28;20195;-85
2021/12/23 08:58:23;;;;;;;48.07;20.23;;;;;;;0.23;60.30;100107.53;4975499;28;20191;-83
2021/12/23 09:00:49;;;;;;;44.53;20.20;;;;;;;1.35;61.30;100337.50;4975610;28;20427;-82
2021/12/23 09:03:35;;;;;;;43.07;20.60;;;;;;;1.82;64.26;100528.25;4975041;28;20695;-85
2021/12/23 09:06:08;;;;;;;43.03;20.37;;;;;;;2.68;63.01;100524.84;4955249;29;20192;-83
2021/12/23 09:08:34;;;;;;;39.73;18.70;;;;;;;2.16;61.19;100435.81;4885721;29;20431;-84
2021/12/23 09:11:03;;;;;;;39.90;20.13;;;;;;;-0.71;60.54;99944.28;4918136;29;20918;-85
2021/12/23 09:13:51;;;;;;;47.73;22.03;;;;;;;0.29;60.05;100080.72;4913145;29;20406;-83
2021/12/23 09:16:21;;;;;;;51.20;21.97;;;;;;;2.98;58.56;100505.16;4851261;29;20934;-85
2021/12/23 09:18:49;;;;;;;55.10;25.13;;;;;;;0.47;59.43;100089.03;4865554;29;21074;-82
2021/12/23 09:21:36;;;;;;;59.20;24.43;;;;;;;3.05;60.05;100479.03;4805896;29;20473;-82
2021/12/23 09:24:03;;;;;;;43.63;18.93;;;;;;;3.16;59.14;100495.91;4807788;29;20552;-84
2021/12/23 09:26:59;;;;;;;42.60;19.83;;;;;;;1.92;59.82;100247.19;4792721;29;20470;-86
2021/12/23 09:34:54;;;;;;;230.63;70.70;;;;;;;3.01;56.48;100358.59;4739535;30;20445;-84
2021/12/23 09:37:23;;;;;;;36.77;18.40;;;;;;;1.00;55.72;99981.81;4740046;30;20431;-86
2021/12/23 09:40:12;;;;;;;88.47;37.83;;;;;;;3.21;55.83;100333.72;4739546;30;20441;-85
2021/12/23 09:42:39;;;;;;;34.10;16.00;;;;;;;3.78;54.36;100458.91;4721379;30;20448;-84
2021/12/23 09:45:10;;;;;;;37.33;20.50;;;;;;;4.15;54.18;100455.41;4720333;30;20435;-84
2021/12/23 09:47:36;;;;;;;90.60;37.23;;;;;;;2.30;53.84;100098.25;4701156;30;20492;-84
2021/12/23 09:50:07;;;;;;;43.03;20.73;;;;;;;3.93;53.51;100360.03;4712619;30;20451;-84
2021/12/23 09:52:42;;;;;;;29.93;14.80;;;;;;;0.26;54.69;99794.16;4730648;30;20704;-85
2021/12/23 09:55:08;;;;;;;37.03;17.70;;;;;;;0.25;53.48;99722.69;4722591;30;20468;-85
2021/12/23 09:57:34;;;;;;;27.70;14.47;;;;;;;3.89;52.63;100315.44;4723904;29;20446;-84
2021/12/23 10:00:04;;;;;;;30.20;15.53;;;;;;;4.90;53.32;100433.38;4790636;30;20457;-86
2021/12/23 10:02:29;;;;;;;28.20;14.23;;;;;;;2.99;52.10;100109.25;4776413;30;20203;-85
2021/12/23 10:04:55;;;;;;;25.37;15.03;;;;;;;4.82;53.14;100415.94;4773461;30;20450;-85
2021/12/23 10:07:20;;;;;;;29.60;16.77;;;;;;;3.10;53.62;100119.28;4873223;29;20242;-87
2021/12/23 10:10:05;;;;;;;30.20;16.47;;;;;;;2.83;52.33;100071.19;4906783;29;20629;-86
2021/12/23 10:31:44;;;;;;;30.87;15.87;;;;;;;5.17;51.17;100228.94;4961457;28;20479;-88
2021/12/23 10:37:16;;;;;;;28.57;15.17;;;;;;;6.27;49.15;100372.31;4960159;28;20464;-87
2021/12/23 10:39:50;;;;;;;33.20;17.83;;;;;;;3.66;49.08;99914.56;4962490;28;20439;-87
2021/12/23 10:42:21;;;;;;;31.73;16.47;;;;;;;6.00;49.27;100386.19;4930720;29;20460;-90
2021/12/23 10:44:52;;;;;;;40.80;20.10;;;;;;;4.60;48.80;100145.88;4919418;29;21049;-91
2021/12/23 10:48:05;;;;;;;25.13;13.13;;;;;;;5.95;47.99;100364.84;4917819;29;20476;-87
2021/12/23 10:50:43;;;;;;;48.67;23.13;;;;;;;5.04;47.02;100297.38;4923492;29;20414;-87
2021/12/23 10:53:12;;;;;;;23.83;11.20;;;;;;;5.38;47.50;100370.31;4922772;29;20452;-89
2021/12/23 10:58:26;;;;;;;35.47;17.53;;;;;;;5.57;49.20;100376.03;4926541;29;20571;-87
2021/12/23 11:01:01;;;;;;;24.13;12.43;;;;;;;5.09;48.70;100222.44;4940471;29;20440;-87
2021/12/23 11:08:53;;;;;;;24.53;12.23;;;;;;;5.02;49.34;100300.53;4940783;29;20427;-89
2021/12/23 11:12:16;;;;;;;22.30;10.53;;;;;;;5.09;49.40;100327.84;4940053;29;20557;-87
2021/12/23 11:31:20;;;;;;;33.20;15.70;;;;;;;1.41;49.91;99687.09;4936613;28;1489501;-90
2021/12/23 11:42:04;;;;;;;34.30;17.20;;;;;;;2.19;48.82;99689.38;4980727;28;20455;-87
2021/12/23 11:44:31;;;;;;;35.03;17.20;;;;;;;4.28;49.65;100097.34;4975478;28;20996;-87
2021/12/23 11:47:07;;;;;;;33.33;15.50;;;;;;;3.20;49.57;99959.19;4968972;28;20443;-90
2021/12/23 11:49:35;;;;;;;29.87;16.50;;;;;;;5.24;49.48;100293.94;4966231;28;20419;-90
2021/12/23 11:52:01;;;;;;;33.60;15.17;;;;;;;3.34;49.23;99979.59;4985696;28;20423;-90
2021/12/23 11:54:30;;;;;;;27.27;13.93;;;;;;;3.76;49.11;100049.75;4990755;28;20812;-90
2021/12/23 11:57:21;;;;;;;26.27;12.37;;;;;;;2.58;50.57;99942.44;4984128;28;20431;-92
2021/12/23 12:02:34;;;;;;;36.83;18.63;;;;;;;1.31;50.81;99677.09;4978927;28;20429;-86
2021/12/23 12:05:05;;;;;;;40.63;18.37;;;;;;;3.51;50.47;100104.47;4982221;28;21002;-85
2021/12/23 12:07:31;;;;;;;45.67;22.13;;;;;;;3.23;51.60;100062.03;4969687;28;20196;-90
2021/12/23 12:10:01;;;;;;;41.70;18.03;;;;;;;4.36;50.79;100295.94;4973294;28;20401;-89
2021/12/23 12:12:30;;;;;;;48.23;24.63;;;;;;;4.21;52.34;100285.53;4979333;28;20173;-89
2021/12/23 12:14:56;;;;;;;31.80;16.27;;;;;;;3.02;51.36;100068.63;4977259;28;21007;-90
2021/12/23 12:17:34;;;;;;;39.27;20.10;;;;;;;4.43;51.36;100285.66;4978798;28;20440;-89
2021/12/23 12:20:10;;;;;;;32.23;16.87;;;;;;;2.42;50.93;99934.41;4976621;28;20175;-88
2021/12/23 12:22:45;;;;;;;36.03;17.37;;;;;;;4.83;50.95;100275.59;4981465;28;20439;-90